Fountain Run, Kentucky
Current Conditions -  °F | °C
As of 6:15 AM on Monday 26 Jan 2015 (Local Time) from KGLW Reporting Station
Overcast Overcast  
Wind Chill: 22°   Ceiling: 1100
Heat Index: 30°   Visibility: 10mi
Dew Point: 27°   Wind: 9mph
Humidity: 89%   Direction: 320°NW
Pressure: 29.9"   Gusts: NA
Location:  36.72°N, 85.97°W
Report Text: KGLW 261215Z AUTO 32008KT 290V350 10SM OVC011 M01/M03 A2990 RMK AO2 T10101026
Loading
Personal Weather Stations






























Interactive Weather Map New forecast layout! Learn more

10-Day Weather Forecast

Advertisements
Track Severe Weather on mobile